sensor_id;sensor_type;location;lat;lon;timestamp;pressure;altitude;pressure_sealevel;temperature;humidity
55916;BME280;41826;53.246;-6.670;2023-04-02T00:03:26;102321.25;;;8.85;100.00
55916;BME280;41826;53.246;-6.670;2023-04-02T00:08:59;102307.41;;;8.69;100.00
55916;BME280;41826;53.246;-6.670;2023-04-02T00:11:40;102314.97;;;8.88;100.00
55916;BME280;41826;53.246;-6.670;2023-04-02T00:14:16;102327.88;;;8.91;100.00
55916;BME280;41826;53.246;-6.670;2023-04-02T00:16:45;102335.09;;;8.87;100.00
55916;BME280;41826;53.246;-6.670;2023-04-02T00:19:17;102343.25;;;8.53;100.00
55916;BME280;41826;53.246;-6.670;2023-04-02T00:21:44;102337.38;;;8.49;100.00
55916;BME280;41826;53.246;-6.670;2023-04-02T00:24:16;102329.63;;;8.32;100.00
55916;BME280;41826;53.246;-6.670;2023-04-02T00:26:45;102314.16;;;8.13;100.00
55916;BME280;41826;53.246;-6.670;2023-04-02T00:29:13;102317.63;;;8.43;100.00
55916;BME280;41826;53.246;-6.670;2023-04-02T00:31:48;102321.53;;;8.66;100.00
55916;BME280;41826;53.246;-6.670;2023-04-02T00:34:18;102324.84;;;8.54;100.00
55916;BME280;41826;53.246;-6.670;2023-04-02T00:36:45;102315.03;;;7.81;100.00
55916;BME280;41826;53.246;-6.670;2023-04-02T00:39:20;102308.50;;;8.35;100.00
55916;BME280;41826;53.246;-6.670;2023-04-02T00:41:47;102319.09;;;8.63;100.00
55916;BME280;41826;53.246;-6.670;2023-04-02T00:44:15;102343.13;;;8.70;100.00
55916;BME280;41826;53.246;-6.670;2023-04-02T00:46:45;102351.84;;;8.85;100.00
55916;BME280;41826;53.246;-6.670;2023-04-02T00:49:37;102350.44;;;8.79;100.00
55916;BME280;41826;53.246;-6.670;2023-04-02T00:52:09;102353.53;;;8.56;100.00
55916;BME280;41826;53.246;-6.670;2023-04-02T00:54:54;102348.94;;;8.29;100.00
55916;BME280;41826;53.246;-6.670;2023-04-02T00:57:24;102338.53;;;8.13;100.00
55916;BME280;41826;53.246;-6.670;2023-04-02T01:02:44;102324.63;;;7.49;100.00
55916;BME280;41826;53.246;-6.670;2023-04-02T01:05:33;102312.84;;;7.58;100.00
55916;BME280;41826;53.246;-6.670;2023-04-02T01:08:01;102309.88;;;7.64;100.00
55916;BME280;41826;53.246;-6.670;2023-04-02T01:10:40;102310.47;;;7.53;100.00
55916;BME280;41826;53.246;-6.670;2023-04-02T01:21:56;102326.25;;;7.84;100.00
55916;BME280;41826;53.246;-6.670;2023-04-02T01:24:29;102328.50;;;7.90;100.00
55916;BME280;41826;53.246;-6.670;2023-04-02T01:27:00;102330.88;;;8.10;100.00
55916;BME280;41826;53.246;-6.670;2023-04-02T01:29:35;102318.00;;;8.21;100.00
55916;BME280;41826;53.246;-6.670;2023-04-02T01:32:05;102340.13;;;8.00;100.00
55916;BME280;41826;53.246;-6.670;2023-04-02T01:34:32;102338.66;;;7.80;100.00
55916;BME280;41826;53.246;-6.670;2023-04-02T01:42:59;102352.22;;;7.71;100.00
55916;BME280;41826;53.246;-6.670;2023-04-02T01:45:29;102361.13;;;7.67;100.00
55916;BME280;41826;53.246;-6.670;2023-04-02T01:47:55;102351.72;;;7.15;100.00
55916;BME280;41826;53.246;-6.670;2023-04-02T01:50:33;102349.06;;;7.32;100.00
55916;BME280;41826;53.246;-6.670;2023-04-02T01:53:03;102350.94;;;7.62;100.00
55916;BME280;41826;53.246;-6.670;2023-04-02T01:58:04;102381.16;;;8.15;100.00
55916;BME280;41826;53.246;-6.670;2023-04-02T02:00:31;102398.16;;;8.22;100.00
55916;BME280;41826;53.246;-6.670;2023-04-02T02:02:59;102407.03;;;8.20;100.00
55916;BME280;41826;53.246;-6.670;2023-04-02T02:05:26;102414.22;;;8.16;100.00
55916;BME280;41826;53.246;-6.670;2023-04-02T02:07:54;102430.09;;;8.13;100.00
55916;BME280;41826;53.246;-6.670;2023-04-02T02:10:26;102440.72;;;8.10;100.00
55916;BME280;41826;53.246;-6.670;2023-04-02T02:12:52;102440.72;;;8.10;100.00
55916;BME280;41826;53.246;-6.670;2023-04-02T02:15:20;102451.25;;;7.93;100.00
55916;BME280;41826;53.246;-6.670;2023-04-02T02:17:47;102448.22;;;8.00;100.00
55916;BME280;41826;53.246;-6.670;2023-04-02T02:20:13;102457.16;;;7.96;100.00
55916;BME280;41826;53.246;-6.670;2023-04-02T02:22:44;102460.19;;;7.89;100.00
55916;BME280;41826;53.246;-6.670;2023-04-02T02:25:15;102459.94;;;7.93;100.00
55916;BME280;41826;53.246;-6.670;2023-04-02T02:30:38;102461.59;;;7.78;100.00
55916;BME280;41826;53.246;-6.670;2023-04-02T02:33:13;102455.09;;;7.70;100.00
55916;BME280;41826;53.246;-6.670;2023-04-02T02:35:48;102460.28;;;7.54;100.00
55916;BME280;41826;53.246;-6.670;2023-04-02T02:38:50;102453.72;;;7.29;100.00
55916;BME280;41826;53.246;-6.670;2023-04-02T02:44:11;102442.41;;;6.59;100.00
55916;BME280;41826;53.246;-6.670;2023-04-02T02:46:43;102424.31;;;6.91;100.00
55916;BME280;41826;53.246;-6.670;2023-04-02T02:49:23;102425.00;;;7.29;100.00
55916;BME280;41826;53.246;-6.670;2023-04-02T02:52:00;102430.50;;;7.41;100.00
55916;BME280;41826;53.246;-6.670;2023-04-02T02:54:29;102445.19;;;7.59;100.00
55916;BME280;41826;53.246;-6.670;2023-04-02T02:57:00;102452.31;;;7.73;100.00
55916;BME280;41826;53.246;-6.670;2023-04-02T02:59:29;102459.59;;;7.84;100.00
55916;BME280;41826;53.246;-6.670;2023-04-02T03:01:55;102470.03;;;7.84;100.00
55916;BME280;41826;53.246;-6.670;2023-04-02T03:04:22;102474.66;;;7.78;100.00
55916;BME280;41826;53.246;-6.670;2023-04-02T03:06:50;102480.75;;;7.79;100.00
55916;BME280;41826;53.246;-6.670;2023-04-02T03:11:51;102494.44;;;7.67;100.00
55916;BME280;41826;53.246;-6.670;2023-04-02T03:14:28;102496.66;;;7.74;100.00
55916;BME280;41826;53.246;-6.670;2023-04-02T03:17:02;102491.59;;;7.71;100.00
55916;BME280;41826;53.246;-6.670;2023-04-02T03:19:52;102483.16;;;7.66;100.00
55916;BME280;41826;53.246;-6.670;2023-04-02T03:22:30;102486.53;;;7.68;100.00
55916;BME280;41826;53.246;-6.670;2023-04-02T03:27:39;102487.47;;;7.67;100.00
55916;BME280;41826;53.246;-6.670;2023-04-02T03:33:30;102489.03;;;7.54;100.00
55916;BME280;41826;53.246;-6.670;2023-04-02T03:36:34;102494.94;;;7.57;100.00
55916;BME280;41826;53.246;-6.670;2023-04-02T03:39:07;102486.94;;;7.60;100.00
55916;BME280;41826;53.246;-6.670;2023-04-02T03:41:58;102487.09;;;7.57;100.00
55916;BME280;41826;53.246;-6.670;2023-04-02T03:47:00;102490.03;;;7.51;100.00
55916;BME280;41826;53.246;-6.670;2023-04-02T03:49:30;102480.94;;;7.58;100.00
55916;BME280;41826;53.246;-6.670;2023-04-02T03:52:25;102485.16;;;7.61;100.00
55916;BME280;41826;53.246;-6.670;2023-04-02T03:54:52;102485.78;;;7.49;100.00
55916;BME280;41826;53.246;-6.670;2023-04-02T03:57:34;102494.06;;;7.57;100.00
55916;BME280;41826;53.246;-6.670;2023-04-02T04:00:15;102491.03;;;7.49;100.00
55916;BME280;41826;53.246;-6.670;2023-04-02T04:02:45;102488.34;;;7.50;100.00
55916;BME280;41826;53.246;-6.670;2023-04-02T04:07:44;102499.47;;;7.54;100.00
55916;BME280;41826;53.246;-6.670;2023-04-02T04:10:16;102492.25;;;7.59;100.00
55916;BME280;41826;53.246;-6.670;2023-04-02T04:12:46;102493.56;;;7.50;100.00
55916;BME280;41826;53.246;-6.670;2023-04-02T04:15:16;102489.03;;;7.54;100.00
55916;BME280;41826;53.246;-6.670;2023-04-02T04:20:57;102485.50;;;7.55;100.00
55916;BME280;41826;53.246;-6.670;2023-04-02T04:23:31;102489.81;;;7.38;100.00
55916;BME280;41826;53.246;-6.670;2023-04-02T04:26:19;102491.63;;;7.54;100.00
55916;BME280;41826;53.246;-6.670;2023-04-02T04:28:58;102500.63;;;7.48;100.00
55916;BME280;41826;53.246;-6.670;2023-04-02T04:31:37;102497.75;;;7.37;100.00
55916;BME280;41826;53.246;-6.670;2023-04-02T04:34:10;102496.47;;;7.44;100.00
55916;BME280;41826;53.246;-6.670;2023-04-02T04:36:47;102505.25;;;7.26;100.00
55916;BME280;41826;53.246;-6.670;2023-04-02T04:39:53;102505.34;;;7.24;100.00
55916;BME280;41826;53.246;-6.670;2023-04-02T04:42:23;102492.13;;;7.45;100.00
55916;BME280;41826;53.246;-6.670;2023-04-02T04:45:12;102499.47;;;7.54;100.00
55916;BME280;41826;53.246;-6.670;2023-04-02T04:47:50;102505.63;;;7.53;100.00
55916;BME280;41826;53.246;-6.670;2023-04-02T04:50:31;102508.41;;;7.50;100.00
55916;BME280;41826;53.246;-6.670;2023-04-02T04:53:13;102500.47;;;7.51;100.00
55916;BME280;41826;53.246;-6.670;2023-04-02T04:55:43;102504.69;;;7.54;100.00
55916;BME280;41826;53.246;-6.670;2023-04-02T05:00:55;102510.41;;;7.45;100.00
55916;BME280;41826;53.246;-6.670;2023-04-02T05:03:47;102509.94;;;7.54;100.00
55916;BME280;41826;53.246;-6.670;2023-04-02T05:06:32;102521.59;;;7.47;100.00
55916;BME280;41826;53.246;-6.670;2023-04-02T05:09:08;102515.31;;;7.16;100.00
55916;BME280;41826;53.246;-6.670;2023-04-02T05:11:56;102521.66;;;7.29;100.00
55916;BME280;41826;53.246;-6.670;2023-04-02T05:14:45;102513.41;;;7.20;100.00
55916;BME280;41826;53.246;-6.670;2023-04-02T05:17:25;102516.88;;;7.20;100.00
55916;BME280;41826;53.246;-6.670;2023-04-02T05:20:01;102514.41;;;7.34;100.00
55916;BME280;41826;53.246;-6.670;2023-04-02T05:22:56;102515.94;;;7.04;100.00
55916;BME280;41826;53.246;-6.670;2023-04-02T05:25:29;102511.88;;;7.33;100.00
55916;BME280;41826;53.246;-6.670;2023-04-02T05:30:51;102485.34;;;6.88;100.00
55916;BME280;41826;53.246;-6.670;2023-04-02T05:33:29;102486.06;;;7.09;100.00
55916;BME280;41826;53.246;-6.670;2023-04-02T05:36:03;102475.38;;;6.79;100.00
55916;BME280;41826;53.246;-6.670;2023-04-02T05:38:34;102473.31;;;7.03;100.00
55916;BME280;41826;53.246;-6.670;2023-04-02T05:41:23;102477.53;;;7.23;100.00
55916;BME280;41826;53.246;-6.670;2023-04-02T05:46:32;102508.31;;;7.34;100.00
55916;BME280;41826;53.246;-6.670;2023-04-02T05:48:59;102516.72;;;7.41;100.00
55916;BME280;41826;53.246;-6.670;2023-04-02T05:51:51;102530.06;;;7.52;100.00
55916;BME280;41826;53.246;-6.670;2023-04-02T05:54:21;102546.22;;;7.60;100.00
55916;BME280;41826;53.246;-6.670;2023-04-02T05:56:56;102556.66;;;7.60;100.00
55916;BME280;41826;53.246;-6.670;2023-04-02T05:59:30;102565.81;;;7.51;100.00
55916;BME280;41826;53.246;-6.670;2023-04-02T06:02:16;102581.09;;;7.59;100.00
55916;BME280;41826;53.246;-6.670;2023-04-02T06:07:27;102573.97;;;7.45;100.00
55916;BME280;41826;53.246;-6.670;2023-04-02T06:12:47;102583.66;;;7.43;100.00
55916;BME280;41826;53.246;-6.670;2023-04-02T06:15:18;102589.41;;;7.32;100.00
55916;BME280;41826;53.246;-6.670;2023-04-02T06:18:16;102593.31;;;7.41;100.00
55916;BME280;41826;53.246;-6.670;2023-04-02T06:20:43;102596.50;;;7.48;100.00
55916;BME280;41826;53.246;-6.670;2023-04-02T06:23:14;102601.78;;;7.46;100.00
55916;BME280;41826;53.246;-6.670;2023-04-02T06:25:45;102604.38;;;7.29;100.00
55916;BME280;41826;53.246;-6.670;2023-04-02T06:28:18;102593.28;;;7.06;100.00
55916;BME280;41826;53.246;-6.670;2023-04-02T06:30:46;102593.25;;;7.25;100.00
55916;BME280;41826;53.246;-6.670;2023-04-02T06:33:12;102597.38;;;7.12;100.00
55916;BME280;41826;53.246;-6.670;2023-04-02T06:35:42;102596.16;;;7.19;100.00
55916;BME280;41826;53.246;-6.670;2023-04-02T06:38:15;102607.22;;;7.24;100.00
55916;BME280;41826;53.246;-6.670;2023-04-02T06:40:52;102603.28;;;7.15;100.00
55916;BME280;41826;53.246;-6.670;2023-04-02T06:45:52;102606.84;;;7.49;100.00
55916;BME280;41826;53.246;-6.670;2023-04-02T06:48:19;102617.41;;;7.48;100.00
55916;BME280;41826;53.246;-6.670;2023-04-02T06:53:44;102630.31;;;7.68;100.00
55916;BME280;41826;53.246;-6.670;2023-04-02T06:58:42;102653.06;;;7.84;100.00
55916;BME280;41826;53.246;-6.670;2023-04-02T07:01:07;102656.50;;;7.67;100.00
55916;BME280;41826;53.246;-6.670;2023-04-02T07:03:39;102658.91;;;7.71;100.00
55916;BME280;41826;53.246;-6.670;2023-04-02T07:06:05;102669.06;;;7.77;100.00
55916;BME280;41826;53.246;-6.670;2023-04-02T07:08:31;102670.75;;;7.78;100.00
55916;BME280;41826;53.246;-6.670;2023-04-02T07:10:56;102680.28;;;7.79;100.00
55916;BME280;41826;53.246;-6.670;2023-04-02T07:13:23;102672.59;;;7.76;100.00
55916;BME280;41826;53.246;-6.670;2023-04-02T07:15:53;102677.91;;;7.75;100.00
55916;BME280;41826;53.246;-6.670;2023-04-02T07:18:27;102686.00;;;7.88;100.00
55916;BME280;41826;53.246;-6.670;2023-04-02T07:20:53;102691.06;;;7.91;100.00
55916;BME280;41826;53.246;-6.670;2023-04-02T07:23:18;102701.38;;;7.94;100.00
55916;BME280;41826;53.246;-6.670;2023-04-02T07:25:49;102692.69;;;7.93;100.00
55916;BME280;41826;53.246;-6.670;2023-04-02T07:28:15;102695.06;;;7.98;100.00
55916;BME280;41826;53.246;-6.670;2023-04-02T07:30:41;102703.59;;;8.01;100.00
55916;BME280;41826;53.246;-6.670;2023-04-02T07:33:12;102702.66;;;8.02;100.00
55916;BME280;41826;53.246;-6.670;2023-04-02T07:35:38;102714.59;;;8.08;100.00
55916;BME280;41826;53.246;-6.670;2023-04-02T07:38:03;102722.28;;;8.11;100.00
55916;BME280;41826;53.246;-6.670;2023-04-02T07:40:28;102716.59;;;8.03;100.00
55916;BME280;41826;53.246;-6.670;2023-04-02T07:42:54;102719.13;;;8.04;100.00
55916;BME280;41826;53.246;-6.670;2023-04-02T07:45:19;102711.22;;;8.06;100.00
55916;BME280;41826;53.246;-6.670;2023-04-02T07:47:45;102714.59;;;7.73;100.00
55916;BME280;41826;53.246;-6.670;2023-04-02T07:50:10;102697.44;;;8.02;100.00
55916;BME280;41826;53.246;-6.670;2023-04-02T07:52:42;102705.44;;;8.17;100.00
55916;BME280;41826;53.246;-6.670;2023-04-02T07:55:13;102707.03;;;8.19;100.00
55916;BME280;41826;53.246;-6.670;2023-04-02T07:57:40;102693.13;;;7.67;100.00
55916;BME280;41826;53.246;-6.670;2023-04-02T08:00:09;102654.25;;;7.05;100.00
55916;BME280;41826;53.246;-6.670;2023-04-02T08:02:36;102615.94;;;7.42;100.00
55916;BME280;41826;53.246;-6.670;2023-04-02T08:05:01;102619.22;;;7.46;100.00
55916;BME280;41826;53.246;-6.670;2023-04-02T08:07:27;102606.47;;;7.40;100.00
55916;BME280;41826;53.246;-6.670;2023-04-02T08:09:52;102581.72;;;7.64;100.00
55916;BME280;41826;53.246;-6.670;2023-04-02T08:12:18;102582.03;;;7.58;100.00
55916;BME280;41826;53.246;-6.670;2023-04-02T08:14:43;102577.09;;;7.17;100.00
55916;BME280;41826;53.246;-6.670;2023-04-02T08:17:08;102563.41;;;7.47;100.00
55916;BME280;41826;53.246;-6.670;2023-04-02T08:19:34;102560.56;;;7.34;100.00
55916;BME280;41826;53.246;-6.670;2023-04-02T08:21:59;102549.47;;;7.81;100.00
55916;BME280;41826;53.246;-6.670;2023-04-02T08:24:25;102567.00;;;6.92;100.00
55916;BME280;41826;53.246;-6.670;2023-04-02T08:26:51;102543.28;;;7.31;100.00
55916;BME280;41826;53.246;-6.670;2023-04-02T08:29:18;102525.44;;;7.57;100.00
55916;BME280;41826;53.246;-6.670;2023-04-02T08:31:44;102541.06;;;7.58;100.00
55916;BME280;41826;53.246;-6.670;2023-04-02T08:34:09;102558.06;;;7.32;100.00
55916;BME280;41826;53.246;-6.670;2023-04-02T08:36:37;102542.53;;;7.29;100.00
55916;BME280;41826;53.246;-6.670;2023-04-02T08:39:04;102523.13;;;7.68;100.00
55916;BME280;41826;53.246;-6.670;2023-04-02T08:41:36;102529.72;;;7.93;100.00
55916;BME280;41826;53.246;-6.670;2023-04-02T08:46:47;102550.34;;;8.31;100.00
55916;BME280;41826;53.246;-6.670;2023-04-02T08:49:28;102567.72;;;8.32;100.00
55916;BME280;41826;53.246;-6.670;2023-04-02T08:51:55;102584.88;;;8.37;100.00
55916;BME280;41826;53.246;-6.670;2023-04-02T08:54:24;102591.69;;;8.24;100.00
55916;BME280;41826;53.246;-6.670;2023-04-02T08:57:18;102588.25;;;8.23;100.00
55916;BME280;41826;53.246;-6.670;2023-04-02T08:59:46;102607.94;;;7.63;100.00
55916;BME280;41826;53.246;-6.670;2023-04-02T09:04:43;102603.63;;;7.79;100.00
55916;BME280;41826;53.246;-6.670;2023-04-02T09:07:13;102597.88;;;8.23;100.00
55916;BME280;41826;53.246;-6.670;2023-04-02T09:09:41;102608.06;;;8.77;100.00
55916;BME280;41826;53.246;-6.670;2023-04-02T09:12:16;102635.84;;;8.30;100.00
55916;BME280;41826;53.246;-6.670;2023-04-02T09:17:19;102649.44;;;8.70;100.00
55916;BME280;41826;53.246;-6.670;2023-04-02T09:20:13;102660.94;;;8.83;100.00
55916;BME280;41826;53.246;-6.670;2023-04-02T09:22:42;102685.91;;;8.57;100.00
55916;BME280;41826;53.246;-6.670;2023-04-02T09:25:15;102694.06;;;8.68;100.00
55916;BME280;41826;53.246;-6.670;2023-04-02T09:27:49;102702.13;;;8.97;100.00
55916;BME280;41826;53.246;-6.670;2023-04-02T09:33:07;102722.81;;;9.18;100.00
55916;BME280;41826;53.246;-6.670;2023-04-02T09:35:54;102735.97;;;8.68;100.00
55916;BME280;41826;53.246;-6.670;2023-04-02T09:38:26;102748.53;;;8.78;100.00
55916;BME280;41826;53.246;-6.670;2023-04-02T09:40:58;102749.25;;;8.81;100.00
55916;BME280;41826;53.246;-6.670;2023-04-02T09:43:37;102756.38;;;9.11;100.00
55916;BME280;41826;53.246;-6.670;2023-04-02T09:46:05;102788.69;;;9.11;100.00
55916;BME280;41826;53.246;-6.670;2023-04-02T09:48:44;102795.78;;;9.09;100.00
55916;BME280;41826;53.246;-6.670;2023-04-02T09:51:17;102794.47;;;8.67;100.00
55916;BME280;41826;53.246;-6.670;2023-04-02T09:56:22;102786.84;;;9.45;100.00
55916;BME280;41826;53.246;-6.670;2023-04-02T10:01:46;102810.19;;;8.67;100.00
55916;BME280;41826;53.246;-6.670;2023-04-02T10:04:33;102806.44;;;9.38;100.00
55916;BME280;41826;53.246;-6.670;2023-04-02T10:07:00;102805.66;;;9.84;100.00
55916;BME280;41826;53.246;-6.670;2023-04-02T10:09:34;102826.13;;;10.09;100.00
55916;BME280;41826;53.246;-6.670;2023-04-02T10:12:03;102840.31;;;10.36;100.00
55916;BME280;41826;53.246;-6.670;2023-04-02T10:14:37;102852.97;;;10.44;100.00
55916;BME280;41826;53.246;-6.670;2023-04-02T10:17:17;102861.59;;;10.91;100.00
55916;BME280;41826;53.246;-6.670;2023-04-02T10:19:53;102879.19;;;10.60;100.00
55916;BME280;41826;53.246;-6.670;2023-04-02T10:22:21;102859.16;;;10.88;100.00
55916;BME280;41826;53.246;-6.670;2023-04-02T10:24:48;102858.34;;;11.01;100.00
55916;BME280;41826;53.246;-6.670;2023-04-02T10:32:50;102867.16;;;11.29;100.00
55916;BME280;41826;53.246;-6.670;2023-04-02T10:36:05;102865.34;;;11.58;100.00
55916;BME280;41826;53.246;-6.670;2023-04-02T10:38:50;102872.19;;;11.61;100.00
55916;BME280;41826;53.246;-6.670;2023-04-02T10:41:31;102862.16;;;11.67;100.00
55916;BME280;41826;53.246;-6.670;2023-04-02T10:43:59;102881.25;;;10.55;100.00
55916;BME280;41826;53.246;-6.670;2023-04-02T10:49:20;102885.97;;;10.64;100.00
55916;BME280;41826;53.246;-6.670;2023-04-02T10:59:56;102863.44;;;10.14;100.00
55916;BME280;41826;53.246;-6.670;2023-04-02T11:02:39;102867.84;;;10.29;100.00
55916;BME280;41826;53.246;-6.670;2023-04-02T11:05:21;102878.09;;;10.64;100.00
55916;BME280;41826;53.246;-6.670;2023-04-02T11:07:59;102878.03;;;10.50;100.00
55916;BME280;41826;53.246;-6.670;2023-04-02T11:10:30;102877.59;;;10.11;100.00
55916;BME280;41826;53.246;-6.670;2023-04-02T11:13:07;102877.91;;;10.37;100.00
55916;BME280;41826;53.246;-6.670;2023-04-02T11:15:36;102877.00;;;10.52;100.00
55916;BME280;41826;53.246;-6.670;2023-04-02T11:18:02;102876.84;;;11.14;100.00
55916;BME280;41826;53.246;-6.670;2023-04-02T11:23:18;102869.97;;;11.26;100.00
55916;BME280;41826;53.246;-6.670;2023-04-02T11:25:45;102863.34;;;11.62;100.00
55916;BME280;41826;53.246;-6.670;2023-04-02T11:28:29;102867.81;;;11.18;100.00
55916;BME280;41826;53.246;-6.670;2023-04-02T11:30:56;102858.88;;;11.49;100.00
55916;BME280;41826;53.246;-6.670;2023-04-02T11:33:36;102855.47;;;11.62;100.00
55916;BME280;41826;53.246;-6.670;2023-04-02T11:36:07;102843.78;;;10.81;100.00
55916;BME280;41826;53.246;-6.670;2023-04-02T11:38:50;102846.22;;;11.13;100.00
55916;BME280;41826;53.246;-6.670;2023-04-02T11:44:23;102843.41;;;11.16;100.00
55916;BME280;41826;53.246;-6.670;2023-04-02T11:46:48;102851.66;;;10.81;100.00
55916;BME280;41826;53.246;-6.670;2023-04-02T11:51:57;102852.00;;;10.15;100.00
55916;BME280;41826;53.246;-6.670;2023-04-02T11:54:25;102857.09;;;10.93;100.00
55916;BME280;41826;53.246;-6.670;2023-04-02T12:00:03;102863.31;;;10.47;100.00
55916;BME280;41826;53.246;-6.670;2023-04-02T12:09:20;102857.31;;;11.33;100.00
55916;BME280;41826;53.246;-6.670;2023-04-02T12:11:49;102852.03;;;11.47;100.00
55916;BME280;41826;53.246;-6.670;2023-04-02T12:17:27;102840.78;;;10.88;100.00
55916;BME280;41826;53.246;-6.670;2023-04-02T12:19:59;102838.69;;;11.21;100.00
55916;BME280;41826;53.246;-6.670;2023-04-02T12:22:32;102840.41;;;11.08;100.00
55916;BME280;41826;53.246;-6.670;2023-04-02T12:25:02;102832.97;;;10.72;100.00
55916;BME280;41826;53.246;-6.670;2023-04-02T12:27:28;102829.13;;;11.35;100.00
55916;BME280;41826;53.246;-6.670;2023-04-02T12:30:09;102829.97;;;11.35;100.00
55916;BME280;41826;53.246;-6.670;2023-04-02T12:32:35;102815.03;;;11.36;100.00
55916;BME280;41826;53.246;-6.670;2023-04-02T12:35:01;102815.91;;;11.07;100.00
55916;BME280;41826;53.246;-6.670;2023-04-02T12:37:28;102824.97;;;11.45;100.00
55916;BME280;41826;53.246;-6.670;2023-04-02T12:42:36;102805.09;;;11.68;100.00
55916;BME280;41826;53.246;-6.670;2023-04-02T12:45:03;102799.34;;;11.76;100.00
55916;BME280;41826;53.246;-6.670;2023-04-02T12:47:29;102799.34;;;11.76;100.00
55916;BME280;41826;53.246;-6.670;2023-04-02T12:49:57;102797.34;;;11.93;100.00
55916;BME280;41826;53.246;-6.670;2023-04-02T12:52:25;102793.66;;;11.96;100.00
55916;BME280;41826;53.246;-6.670;2023-04-02T12:54:59;102790.28;;;11.94;100.00
55916;BME280;41826;53.246;-6.670;2023-04-02T12:59:52;102806.75;;;12.10;100.00
55916;BME280;41826;53.246;-6.670;2023-04-02T13:02:28;102784.09;;;12.08;100.00
55916;BME280;41826;53.246;-6.670;2023-04-02T13:04:56;102806.69;;;12.38;100.00
55916;BME280;41826;53.246;-6.670;2023-04-02T13:07:27;102808.31;;;12.00;100.00
55916;BME280;41826;53.246;-6.670;2023-04-02T13:09:54;102816.81;;;11.77;100.00
55916;BME280;41826;53.246;-6.670;2023-04-02T13:12:38;102822.72;;;12.07;100.00
55916;BME280;41826;53.246;-6.670;2023-04-02T13:15:17;102843.47;;;11.99;100.00
55916;BME280;41826;53.246;-6.670;2023-04-02T13:17:46;102839.25;;;11.41;100.00
55916;BME280;41826;53.246;-6.670;2023-04-02T13:20:35;102854.00;;;11.43;100.00
55916;BME280;41826;53.246;-6.670;2023-04-02T13:25:47;102853.88;;;11.59;100.00
55916;BME280;41826;53.246;-6.670;2023-04-02T13:28:13;102856.38;;;11.89;100.00
55916;BME280;41826;53.246;-6.670;2023-04-02T13:30:38;102840.16;;;11.68;100.00
55916;BME280;41826;53.246;-6.670;2023-04-02T13:33:04;102849.84;;;11.54;100.00
55916;BME280;41826;53.246;-6.670;2023-04-02T13:35:29;102842.38;;;11.75;100.00
55916;BME280;41826;53.246;-6.670;2023-04-02T13:37:55;102838.78;;;11.90;100.00
55916;BME280;41826;53.246;-6.670;2023-04-02T13:40:20;102838.28;;;11.56;100.00
55916;BME280;41826;53.246;-6.670;2023-04-02T13:42:47;102829.00;;;11.92;100.00
55916;BME280;41826;53.246;-6.670;2023-04-02T13:47:45;102819.19;;;12.21;100.00
55916;BME280;41826;53.246;-6.670;2023-04-02T13:50:19;102794.88;;;12.30;100.00
55916;BME280;41826;53.246;-6.670;2023-04-02T13:52:45;102757.94;;;11.92;100.00
55916;BME280;41826;53.246;-6.670;2023-04-02T13:55:11;102772.16;;;12.02;100.00
55916;BME280;41826;53.246;-6.670;2023-04-02T13:57:37;102783.53;;;11.07;100.00
55916;BME280;41826;53.246;-6.670;2023-04-02T14:00:04;102807.16;;;11.36;100.00
55916;BME280;41826;53.246;-6.670;2023-04-02T14:02:30;102822.13;;;11.62;100.00
55916;BME280;41826;53.246;-6.670;2023-04-02T14:10:44;102808.53;;;12.10;100.00
55916;BME280;41826;53.246;-6.670;2023-04-02T14:30:05;102687.75;;;12.05;100.00
55916;BME280;41826;53.246;-6.670;2023-04-02T14:33:06;102622.09;;;12.53;100.00
55916;BME280;41826;53.246;-6.670;2023-04-02T14:35:38;102490.53;;;12.39;100.00
55916;BME280;41826;53.246;-6.670;2023-04-02T14:38:20;102409.22;;;12.34;100.00
55916;BME280;41826;53.246;-6.670;2023-04-02T14:41:21;102319.38;;;11.91;100.00
55916;BME280;41826;53.246;-6.670;2023-04-02T14:43:55;102308.63;;;12.18;100.00
55916;BME280;41826;53.246;-6.670;2023-04-02T14:46:26;102301.63;;;12.41;100.00
55916;BME280;41826;53.246;-6.670;2023-04-02T14:49:08;102301.78;;;11.91;100.00
55916;BME280;41826;53.246;-6.670;2023-04-02T14:51:48;102312.72;;;11.98;100.00
55916;BME280;41826;53.246;-6.670;2023-04-02T15:02:17;102324.53;;;12.28;100.00
55916;BME280;41826;53.246;-6.670;2023-04-02T15:04:53;102279.59;;;11.59;100.00
55916;BME280;41826;53.246;-6.670;2023-04-02T15:07:23;102300.91;;;12.04;100.00
55916;BME280;41826;53.246;-6.670;2023-04-02T15:09:59;102264.50;;;11.98;100.00
55916;BME280;41826;53.246;-6.670;2023-04-02T15:12:32;102256.41;;;12.12;100.00
55916;BME280;41826;53.246;-6.670;2023-04-02T15:15:06;102235.38;;;12.23;100.00
55916;BME280;41826;53.246;-6.670;2023-04-02T15:17:32;102236.41;;;12.09;100.00
55916;BME280;41826;53.246;-6.670;2023-04-02T15:20:11;102223.16;;;12.22;100.00
55916;BME280;41826;53.246;-6.670;2023-04-02T15:25:51;102201.94;;;12.01;100.00
55916;BME280;41826;53.246;-6.670;2023-04-02T15:28:25;102191.66;;;12.09;100.00
55916;BME280;41826;53.246;-6.670;2023-04-02T15:30:56;102205.25;;;12.39;100.00
55916;BME280;41826;53.246;-6.670;2023-04-02T15:39:28;102224.38;;;12.18;100.00
55916;BME280;41826;53.246;-6.670;2023-04-02T15:45:32;102236.50;;;11.97;100.00
55916;BME280;41826;53.246;-6.670;2023-04-02T15:53:53;102229.72;;;12.05;100.00
55916;BME280;41826;53.246;-6.670;2023-04-02T16:02:13;102233.78;;;12.09;100.00
55916;BME280;41826;53.246;-6.670;2023-04-02T16:04:55;102246.91;;;11.74;100.00
55916;BME280;41826;53.246;-6.670;2023-04-02T16:10:21;102253.28;;;11.59;100.00
55916;BME280;41826;53.246;-6.670;2023-04-02T16:12:51;102262.34;;;11.79;100.00
55916;BME280;41826;53.246;-6.670;2023-04-02T16:15:27;102265.72;;;12.05;100.00